createdAt,value
2018-06-01T00:00:03.066Z,12.4
2018-06-01T00:15:02.640Z,12.4
2018-06-01T00:30:08.008Z,12.4
2018-06-01T00:45:02.554Z,12.4
2018-06-01T01:00:07.721Z,12.3
2018-06-01T01:15:21.316Z,12.3
2018-06-01T01:30:05.523Z,12.3
2018-06-01T01:45:03.844Z,12.2
2018-06-01T02:00:04.116Z,12.2
2018-06-01T02:15:10.288Z,12.2
2018-06-01T02:30:02.739Z,12.2
2018-06-01T02:45:03.226Z,12.1
2018-06-01T03:00:02.669Z,12.1
2018-06-01T03:15:03.101Z,12.1
2018-06-01T03:30:02.547Z,12.1
2018-06-01T03:45:02.924Z,12.1
2018-06-01T04:00:03.231Z,12.1
2018-06-01T04:15:02.570Z,12.1
2018-06-01T04:30:02.962Z,12.1
2018-06-01T04:45:02.402Z,12.1
2018-06-01T05:00:02.717Z,12.1
2018-06-01T05:15:03.000Z,12.1
2018-06-01T05:30:02.474Z,12.1
2018-06-01T05:45:02.896Z,12.1
2018-06-01T06:00:03.447Z,12.1
2018-06-01T06:15:02.899Z,12.1
2018-06-01T06:30:02.541Z,12.2
2018-06-01T06:45:02.961Z,12.2
2018-06-01T07:00:02.496Z,12.2
2018-06-01T07:15:02.933Z,12.2
2018-06-01T07:30:02.454Z,12.2
2018-06-01T07:45:02.836Z,12.2
2018-06-01T08:00:03.302Z,12.2
2018-06-01T08:15:02.829Z,12.2
2018-06-01T08:30:03.339Z,12.3
2018-06-01T08:45:02.901Z,12.3
2018-06-01T09:00:03.247Z,12.3
2018-06-01T09:15:02.715Z,12.4
2018-06-01T09:30:03.281Z,12.4
2018-06-01T09:45:02.728Z,12.4
2018-06-01T10:00:03.190Z,12.4
2018-06-01T10:15:02.670Z,12.4
2018-06-01T10:30:03.079Z,12.4
2018-06-01T10:45:02.585Z,12.5
2018-06-01T11:00:02.973Z,12.6
2018-06-01T11:15:02.364Z,12.6
2018-06-01T11:30:02.855Z,12.6
2018-06-01T11:45:03.252Z,12.6
2018-06-01T12:00:02.951Z,12.6
2018-06-01T12:15:02.372Z,12.6
2018-06-01T12:30:02.864Z,12.7
2018-06-01T12:45:03.296Z,12.8
2018-06-01T13:00:02.955Z,12.8
2018-06-01T13:15:02.426Z,12.8
2018-06-01T13:30:02.865Z,12.9
2018-06-01T13:45:03.336Z,12.9
2018-06-01T14:00:02.749Z,12.9
2018-06-01T14:15:03.086Z,12.9
2018-06-01T14:30:02.573Z,12.9
2018-06-01T14:45:02.922Z,12.8
2018-06-01T15:00:03.313Z,12.8
2018-06-01T15:15:02.670Z,12.8
2018-06-01T15:30:03.185Z,12.7
2018-06-01T15:45:02.522Z,12.6
2018-06-01T16:00:02.837Z,12.6
2018-06-01T16:15:03.207Z,12.6
2018-06-01T16:30:02.616Z,12.6
2018-06-01T16:45:03.000Z,12.6
2018-06-01T17:00:02.346Z,12.6
2018-06-01T17:15:02.659Z,12.6
2018-06-01T17:30:04.241Z,12.6
2018-06-01T17:45:02.623Z,12.6
2018-06-01T18:00:02.956Z,12.6
2018-06-01T18:15:02.435Z,12.5
2018-06-01T18:30:02.911Z,12.5
2018-06-01T18:45:03.292Z,12.4
2018-06-01T19:00:02.732Z,12.4
2018-06-01T19:15:03.226Z,12.4
2018-06-01T19:30:02.689Z,12.4
2018-06-01T19:45:02.986Z,12.3
2018-06-01T20:00:02.409Z,12.3
2018-06-01T20:15:03.092Z,12.3
2018-06-01T20:30:02.511Z,12.3
2018-06-01T20:45:08.821Z,12.3
2018-06-01T21:00:15.055Z,12.3
2018-06-01T21:15:02.449Z,12.3
2018-06-01T21:30:02.879Z,12.3
2018-06-01T21:45:03.277Z,12.3
2018-06-01T22:00:02.657Z,12.3
2018-06-01T22:15:03.055Z,12.3
2018-06-01T22:30:02.562Z,12.3
2018-06-01T22:45:02.936Z,12.3
2018-06-01T23:00:03.290Z,12.3
2018-06-01T23:15:02.672Z,12.3
2018-06-01T23:30:03.067Z,12.3
2018-06-01T23:45:02.472Z,12.3
